Time;durP1;ratioP1;P1;durP2;ratioP2;P2;SDS_P1;SDS_P2;PMS_P1;PMS_P2;Temp;Humidity;BMP_temperature;BMP_pressure;BME280_temperature;BME280_humidity;BME280_pressure;Samples;Min_cycle;Max_cycle;Signal;HPM_P1;HPM_P2
2021/01/26 00:00:55;;;;;;;11.12;6.83;;;;;;;-1.16;86.13;99231.59;2313795;67;21916;-69
2021/01/26 00:03:56;;;;;;;12.96;7.41;;;;;;;-1.13;86.22;99229.16;2314645;68;20189;-69
2021/01/26 00:06:58;;;;;;;14.28;7.64;;;;;;;-1.15;86.23;99224.00;2313820;69;20144;-69
2021/01/26 00:10:00;;;;;;;12.77;7.98;;;;;;;-1.19;86.39;99221.28;2316559;69;20621;-69
2021/01/26 00:13:04;;;;;;;11.59;6.32;;;;;;;-1.23;86.43;99223.72;2314865;68;20136;-69
2021/01/26 00:16:05;;;;;;;9.50;6.24;;;;;;;-1.24;86.58;99229.63;2314774;67;20635;-69
2021/01/26 00:19:07;;;;;;;10.54;6.87;;;;;;;-1.25;86.71;99229.56;2314126;69;20143;-69
2021/01/26 00:22:09;;;;;;;9.79;6.59;;;;;;;-1.29;86.66;99226.00;2315373;69;20167;-69
2021/01/26 00:25:24;;;;;;;12.58;6.20;;;;;;;-1.26;86.80;99230.34;2314563;68;20197;-69
2021/01/26 00:28:26;;;;;;;11.84;7.17;;;;;;;-1.29;86.66;99227.69;2312977;69;20151;-69
2021/01/26 00:31:29;;;;;;;10.88;7.12;;;;;;;-1.34;86.73;99231.75;2312866;67;22963;-69
2021/01/26 00:34:31;;;;;;;13.32;7.02;;;;;;;-1.37;86.74;99226.53;2306799;69;20221;-72
2021/01/26 00:37:32;;;;;;;12.13;7.20;;;;;;;-1.38;86.79;99229.88;2307785;69;20181;-71
2021/01/26 00:40:35;;;;;;;12.11;7.42;;;;;;;-1.38;86.98;99230.75;2313418;69;20175;-72
2021/01/26 00:43:36;;;;;;;12.18;7.07;;;;;;;-1.37;87.04;99229.06;2315191;69;20750;-71
2021/01/26 00:46:38;;;;;;;13.19;7.91;;;;;;;-1.37;87.14;99229.06;2313801;67;35875;-72
2021/01/26 00:49:40;;;;;;;13.18;7.43;;;;;;;-1.34;87.38;99240.25;2314462;69;20167;-72
2021/01/26 00:52:41;;;;;;;12.18;7.40;;;;;;;-1.30;87.49;99231.91;2314792;69;20209;-72
2021/01/26 00:55:43;;;;;;;12.54;7.52;;;;;;;-1.23;87.65;99231.38;2315534;69;20234;-72
2021/01/26 00:58:45;;;;;;;13.91;7.40;;;;;;;-1.17;87.76;99229.88;2315422;69;20524;-72
2021/01/26 01:01:46;;;;;;;12.21;7.28;;;;;;;-1.12;88.02;99228.34;2314126;66;20159;-72
2021/01/26 01:04:48;;;;;;;11.13;6.64;;;;;;;-1.08;88.25;99231.06;2314855;69;20197;-72
2021/01/26 01:07:50;;;;;;;9.98;6.60;;;;;;;-1.01;88.36;99234.75;2315281;69;20202;-72
2021/01/26 01:10:53;;;;;;;10.69;7.08;;;;;;;-0.93;88.38;99238.44;2313981;69;20191;-72
2021/01/26 01:13:54;;;;;;;13.11;7.02;;;;;;;-0.87;88.44;99230.19;2313692;68;20163;-72
2021/01/26 01:16:56;;;;;;;14.51;7.19;;;;;;;-0.81;88.48;99236.38;2313384;66;21045;-72
2021/01/26 01:19:58;;;;;;;10.29;6.18;;;;;;;-0.73;88.53;99236.66;2314433;69;20152;-72
2021/01/26 01:23:00;;;;;;;9.17;6.29;;;;;;;-0.67;88.55;99242.88;2314070;69;20195;-72
2021/01/26 01:26:02;;;;;;;11.00;6.41;;;;;;;-0.61;88.58;99248.19;2314803;69;20173;-72
2021/01/26 01:29:03;;;;;;;10.96;6.22;;;;;;;-0.54;88.64;99256.06;2314360;69;20147;-72
2021/01/26 01:32:05;;;;;;;10.38;5.90;;;;;;;-0.49;88.60;99252.88;2313750;66;22396;-72
2021/01/26 01:35:09;;;;;;;10.97;6.19;;;;;;;-0.43;88.59;99264.97;2313956;69;20173;-72
2021/01/26 01:38:11;;;;;;;10.12;6.49;;;;;;;-0.39;88.64;99270.25;2314375;69;20254;-72
2021/01/26 01:41:14;;;;;;;9.84;5.79;;;;;;;-0.36;88.64;99267.84;2313960;69;20144;-72
2021/01/26 01:44:16;;;;;;;11.66;5.77;;;;;;;-0.31;88.56;99273.09;2314625;69;21026;-72
2021/01/26 01:47:25;;;;;;;11.36;5.36;;;;;;;-0.27;88.46;99274.94;2313756;66;20580;-72
2021/01/26 01:50:31;;;;;;;9.18;5.47;;;;;;;-0.24;88.49;99277.59;2314365;69;21045;-72
2021/01/26 01:53:46;;;;;;;9.42;4.74;;;;;;;-0.20;88.42;99276.88;2314852;69;20177;-72
2021/01/26 01:56:57;;;;;;;9.10;4.89;;;;;;;-0.16;88.35;99273.66;2315052;69;20147;-72
2021/01/26 02:00:04;;;;;;;6.03;4.50;;;;;;;-0.11;88.26;99276.34;2314889;68;20191;-72
2021/01/26 02:03:18;;;;;;;8.64;5.50;;;;;;;-0.08;88.16;99273.91;2314187;67;21375;-72
2021/01/26 02:06:23;;;;;;;7.22;4.46;;;;;;;-0.05;88.01;99269.78;2314718;69;20604;-72
2021/01/26 02:09:27;;;;;;;8.42;4.47;;;;;;;-0.05;87.94;99269.78;2314730;69;20261;-72
2021/01/26 02:12:29;;;;;;;8.26;4.64;;;;;;;-0.01;87.94;99273.31;2314682;69;20205;-72
2021/01/26 02:15:34;;;;;;;6.58;3.94;;;;;;;0.02;87.80;99277.69;2313737;66;20892;-72
2021/01/26 02:18:52;;;;;;;8.62;3.97;;;;;;;0.05;87.68;99267.56;2314731;69;20167;-72
2021/01/26 02:22:22;;;;;;;6.46;3.73;;;;;;;0.09;87.53;99282.16;2314668;69;20855;-72
2021/01/26 02:25:35;;;;;;;4.53;3.26;;;;;;;0.11;87.45;99280.53;2314225;69;20175;-72
2021/01/26 02:28:57;;;;;;;7.26;4.04;;;;;;;0.15;87.26;99274.72;2314422;69;20730;-72
2021/01/26 02:31:59;;;;;;;6.52;2.68;;;;;;;0.18;87.14;99278.28;2312794;66;22262;-72
2021/01/26 02:35:34;;;;;;;5.38;3.07;;;;;;;0.20;87.03;99278.31;2314022;69;20180;-72
2021/01/26 02:39:01;;;;;;;5.12;2.90;;;;;;;0.23;86.80;99275.88;2316281;69;20156;-72
2021/01/26 02:42:25;;;;;;;7.02;2.98;;;;;;;0.25;86.70;99271.69;2314233;69;20148;-72
2021/01/26 02:45:38;;;;;;;7.31;2.68;;;;;;;0.26;86.59;99270.84;2315695;66;20147;-72
2021/01/26 02:48:51;;;;;;;7.80;3.11;;;;;;;0.26;86.52;99274.28;2317861;69;20208;-72
2021/01/26 02:52:03;;;;;;;6.38;3.34;;;;;;;0.27;86.65;99278.56;2317181;69;20540;-72
2021/01/26 02:55:22;;;;;;;5.06;2.78;;;;;;;0.28;86.48;99285.41;2317016;69;20159;-72
2021/01/26 02:58:30;;;;;;;;;;;;;;;0.32;86.36;99286.38;2316385;69;20171;-72
2021/01/26 03:01:40;;;;;;;7.51;3.37;;;;;;;0.33;86.34;99279.59;2315638;66;20072;-72
2021/01/26 03:04:59;;;;;;;5.99;2.78;;;;;;;0.33;86.18;99288.13;2318452;69;20252;-72
2021/01/26 03:08:06;;;;;;;6.20;3.05;;;;;;;0.36;86.12;99300.13;2318351;69;20183;-72
2021/01/26 03:11:17;;;;;;;3.54;2.86;;;;;;;0.37;86.06;99305.31;2318197;69;20152;-72
2021/01/26 03:14:44;;;;;;;5.83;3.93;;;;;;;0.37;86.09;99315.50;2317257;69;20656;-72
2021/01/26 03:17:52;;;;;;;6.82;2.98;;;;;;;0.38;85.96;99312.16;2317594;66;25083;-72
2021/01/26 03:20:59;;;;;;;6.01;2.86;;;;;;;0.38;86.00;99321.50;2317775;69;20563;-72
2021/01/26 03:24:08;;;;;;;3.56;2.66;;;;;;;0.39;85.99;99323.22;2318173;69;20180;-72
2021/01/26 03:27:13;;;;;;;6.16;2.83;;;;;;;0.40;85.94;99319.84;2317584;69;20312;-72
2021/01/26 03:30:20;;;;;;;4.34;2.87;;;;;;;0.42;85.73;99334.41;2316961;68;20232;-72
2021/01/26 03:33:26;;;;;;;3.72;2.29;;;;;;;0.44;85.75;99332.78;2318279;69;20238;-72
2021/01/26 03:36:28;;;;;;;5.56;2.83;;;;;;;0.45;85.62;99334.50;2317524;69;20749;-72
2021/01/26 03:39:30;;;;;;;6.83;3.40;;;;;;;0.44;85.57;99325.13;2318444;69;20292;-72
2021/01/26 03:42:34;;;;;;;4.59;2.26;;;;;;;0.45;85.72;99329.41;2318434;69;20155;-72
2021/01/26 03:45:36;;;;;;;7.19;2.80;;;;;;;0.43;85.83;99332.72;2318422;66;20643;-72
2021/01/26 03:48:47;;;;;;;3.69;2.46;;;;;;;0.44;85.92;99335.34;2316858;69;20177;-72
2021/01/26 03:52:13;;;;;;;2.69;2.43;;;;;;;0.47;85.80;99337.97;2318240;69;20139;-73
2021/01/26 03:55:42;;;;;;;5.42;2.21;;;;;;;0.49;85.82;99335.47;2317347;69;20622;-73
2021/01/26 03:59:09;;;;;;;3.27;1.84;;;;;;;0.52;85.67;99330.47;2317995;69;20163;-73
2021/01/26 04:02:18;;;;;;;3.89;2.20;;;;;;;0.52;85.64;99333.03;2315439;66;27946;-73
2021/01/26 04:05:21;;;;;;;;;;;;;;;0.53;85.75;99337.31;2317443;69;20866;-73
2021/01/26 04:08:36;;;;;;;5.45;1.38;;;;;;;0.53;85.65;99339.88;2317396;69;20089;-73
2021/01/26 04:11:40;;;;;;;3.38;2.17;;;;;;;0.52;85.68;99338.13;2316335;69;20285;-73
2021/01/26 04:14:47;;;;;;;4.81;2.09;;;;;;;0.50;85.69;99350.84;2316004;69;20152;-73
2021/01/26 04:17:53;;;;;;;5.25;2.49;;;;;;;0.53;85.72;99360.31;2314528;67;21416;-72
2021/01/26 04:20:56;;;;;;;4.83;2.14;;;;;;;0.54;85.70;99362.94;2316569;69;20304;-73
2021/01/26 04:23:58;;;;;;;2.66;1.83;;;;;;;0.54;85.83;99362.94;2315422;69;20179;-73
2021/01/26 04:27:05;;;;;;;3.92;1.93;;;;;;;0.56;85.82;99376.63;2317110;69;20270;-73
2021/01/26 04:30:07;;;;;;;4.00;1.90;;;;;;;0.59;85.78;99384.41;2316188;69;20177;-73
2021/01/26 04:33:15;;;;;;;3.34;2.14;;;;;;;0.60;85.77;99390.38;2315904;67;20215;-73
2021/01/26 04:36:19;;;;;;;7.16;2.10;;;;;;;0.60;85.78;99401.47;2316747;69;20159;-72
2021/01/26 04:39:21;;;;;;;4.69;2.19;;;;;;;0.63;85.81;99399.84;2316942;69;20719;-72
2021/01/26 04:42:27;;;;;;;3.67;1.73;;;;;;;0.65;85.76;99413.53;2316112;69;20520;-73
2021/01/26 04:45:35;;;;;;;5.32;1.78;;;;;;;0.69;85.71;99420.47;2315660;66;20750;-73
2021/01/26 04:49:11;;;;;;;5.12;2.01;;;;;;;0.71;85.75;99413.72;2316587;69;20661;-72
2021/01/26 04:52:50;;;;;;;4.80;1.39;;;;;;;0.72;85.65;99416.38;2316245;69;20646;-73
2021/01/26 04:56:08;;;;;;;5.22;1.92;;;;;;;0.73;85.58;99413.00;2315623;69;20724;-73
2021/01/26 04:59:16;;;;;;;3.14;1.81;;;;;;;0.74;85.64;99416.41;2317068;69;20784;-73
2021/01/26 05:02:45;;;;;;;6.97;1.79;;;;;;;0.75;85.50;99415.59;2315870;66;21508;-72
2021/01/26 05:05:54;;;;;;;5.93;1.71;;;;;;;0.74;85.46;99421.53;2316545;69;20160;-72
2021/01/26 05:08:59;;;;;;;6.81;1.51;;;;;;;0.74;85.44;99424.09;2317234;69;20300;-73
2021/01/26 05:12:05;;;;;;;3.77;1.48;;;;;;;0.77;85.37;99421.63;2316349;69;20140;-73
2021/01/26 05:15:10;;;;;;;6.21;1.60;;;;;;;0.76;85.21;99425.00;2317293;69;20185;-73
2021/01/26 05:18:21;;;;;;;2.99;1.67;;;;;;;0.77;85.14;99419.94;2317943;67;20199;-73
2021/01/26 05:21:38;;;;;;;2.00;1.29;;;;;;;0.73;85.04;99427.47;2316261;69;20319;-72
2021/01/26 05:24:48;;;;;;;2.99;1.46;;;;;;;0.68;84.91;99424.72;2317159;69;20152;-73
2021/01/26 05:27:51;;;;;;;1.98;1.33;;;;;;;0.64;84.74;99427.13;2316338;69;20272;-73
2021/01/26 05:31:05;;;;;;;6.28;1.60;;;;;;;0.59;84.53;99429.50;2316681;66;37218;-73
2021/01/26 05:34:13;;;;;;;5.39;1.47;;;;;;;0.53;84.67;99430.16;2317684;69;20295;-72
2021/01/26 05:37:15;;;;;;;2.88;1.45;;;;;;;0.51;84.51;99428.34;2316290;69;20571;-73
2021/01/26 05:40:22;;;;;;;5.07;1.61;;;;;;;0.47;84.59;99426.50;2316870;69;20866;-73
2021/01/26 05:43:29;;;;;;;3.41;1.51;;;;;;;0.46;84.70;99435.84;2315041;69;20567;-73
2021/01/26 05:46:41;;;;;;;4.01;1.43;;;;;;;0.47;84.59;99429.94;2315004;66;27418;-73
2021/01/26 05:49:51;;;;;;;2.90;1.40;;;;;;;0.44;84.64;99434.94;2316941;69;20144;-73
2021/01/26 05:52:56;;;;;;;3.23;1.82;;;;;;;0.39;84.47;99433.91;2317001;69;20216;-73
2021/01/26 05:56:14;;;;;;;3.90;1.50;;;;;;;0.37;84.47;99437.22;2315898;69;20152;-73
2021/01/26 05:59:34;;;;;;;3.60;1.49;;;;;;;0.32;84.29;99443.81;2316652;69;20155;-73
2021/01/26 06:02:36;;;;;;;3.72;1.60;;;;;;;0.27;84.30;99453.88;2315507;66;23948;-73
2021/01/26 06:05:40;;;;;;;2.96;1.30;;;;;;;0.25;84.41;99465.72;2316855;69;20744;-73
2021/01/26 06:08:53;;;;;;;5.54;1.32;;;;;;;0.23;84.31;99464.78;2316088;69;20213;-73
2021/01/26 06:12:10;;;;;;;2.51;1.04;;;;;;;0.21;84.35;99466.44;2317031;69;20132;-73
2021/01/26 06:15:12;;;;;;;3.44;1.12;;;;;;;0.21;84.50;99468.97;2316003;69;20229;-73
2021/01/26 06:18:20;;;;;;;4.13;1.59;;;;;;;0.25;84.62;99474.25;2323369;68;20162;-73
2021/01/26 06:21:21;;;;;;;5.36;1.97;;;;;;;0.27;84.71;99481.97;2323148;68;20228;-72
2021/01/26 06:24:26;;;;;;;4.17;2.04;;;;;;;0.32;84.84;99479.56;2322792;68;20173;-71
2021/01/26 06:27:37;;;;;;;2.44;1.30;;;;;;;0.35;84.81;99485.66;2323576;68;20135;-71
2021/01/26 06:30:42;;;;;;;3.03;1.22;;;;;;;0.40;84.77;99481.63;2322427;66;33190;-72
2021/01/26 06:34:02;;;;;;;6.71;1.68;;;;;;;0.43;84.84;99486.84;2323062;68;20504;-74
2021/01/26 06:37:20;;;;;;;5.11;1.42;;;;;;;0.48;84.79;99487.00;2323045;68;20176;-72
2021/01/26 06:40:40;;;;;;;3.62;1.77;;;;;;;0.53;84.71;99491.44;2322194;68;20175;-71
2021/01/26 06:47:12;;;;;;;5.67;1.40;;;;;;;0.55;84.17;99494.09;2310404;66;21520;-71
2021/01/26 06:50:33;;;;;;;3.64;1.41;;;;;;;0.52;84.06;99501.63;2309789;69;20229;-72
2021/01/26 06:53:56;;;;;;;2.39;1.03;;;;;;;0.53;83.99;99498.25;2309098;69;20217;-72
2021/01/26 06:57:16;;;;;;;3.14;1.20;;;;;;;0.54;83.79;99497.47;2310264;69;20255;-72
2021/01/26 07:00:24;;;;;;;3.00;1.16;;;;;;;0.48;83.70;99505.75;2308082;66;21219;-72
2021/01/26 07:03:53;;;;;;;2.22;1.40;;;;;;;0.44;83.64;99500.47;2311041;69;20350;-73
2021/01/26 07:07:32;;;;;;;2.63;1.51;;;;;;;0.43;83.63;99514.94;2310008;69;20257;-72
2021/01/26 07:11:05;;;;;;;4.19;1.73;;;;;;;0.43;83.72;99527.69;2310785;69;20141;-73
2021/01/26 07:14:27;;;;;;;2.33;1.33;;;;;;;0.49;83.89;99529.59;2308728;69;20181;-73
2021/01/26 07:17:38;;;;;;;2.76;1.01;;;;;;;0.46;83.89;99530.38;2308807;67;22712;-73
2021/01/26 07:21:09;;;;;;;3.84;1.30;;;;;;;0.50;83.94;99534.78;2309456;69;20176;-74
2021/01/26 07:24:14;;;;;;;3.08;1.39;;;;;;;0.48;83.74;99541.50;2320929;68;20206;-74
2021/01/26 07:27:32;;;;;;;4.01;1.16;;;;;;;0.50;83.80;99552.66;2323913;68;20135;-73
2021/01/26 07:30:42;;;;;;;3.16;1.38;;;;;;;0.54;83.85;99551.97;2323217;67;24735;-74
2021/01/26 07:34:00;;;;;;;6.31;1.21;;;;;;;0.59;83.83;99555.56;2322641;68;20934;-73
2021/01/26 07:37:13;;;;;;;5.47;1.54;;;;;;;0.64;83.68;99560.84;2324135;68;20188;-73
2021/01/26 07:40:24;;;;;;;4.42;1.14;;;;;;;0.71;83.73;99561.94;2323964;68;20143;-73
2021/01/26 07:43:36;;;;;;;6.32;1.21;;;;;;;0.71;83.41;99567.03;2323271;68;20187;-76
2021/01/26 07:47:07;;;;;;;2.38;1.31;;;;;;;0.70;83.55;99561.06;2323618;66;21533;-75
2021/01/26 07:50:23;;;;;;;2.86;1.20;;;;;;;0.78;83.49;99566.47;2324431;68;20745;-75
2021/01/26 07:53:34;;;;;;;4.13;1.29;;;;;;;0.77;83.41;99563.06;2323303;68;20287;-75
2021/01/26 07:56:38;;;;;;;4.74;1.22;;;;;;;0.75;83.26;99562.13;2324153;68;20172;-77
2021/01/26 07:59:44;;;;;;;5.71;1.23;;;;;;;0.82;83.41;99579.41;2323775;68;20929;-75
2021/01/26 08:02:52;;;;;;;2.79;1.20;;;;;;;0.82;83.11;99574.31;2323519;66;20713;-73
2021/01/26 08:05:56;;;;;;;3.98;1.74;;;;;;;0.86;82.93;99570.16;2323223;68;20474;-72
2021/01/26 08:08:57;;;;;;;5.21;1.53;;;;;;;0.84;82.51;99582.03;2323362;68;20231;-74
2021/01/26 08:12:04;;;;;;;5.75;1.33;;;;;;;0.86;82.64;99588.06;2323534;68;20721;-74
2021/01/26 08:15:30;;;;;;;4.71;1.50;;;;;;;0.86;82.25;99588.06;2322886;68;20693;-74
2021/01/26 08:18:32;;;;;;;4.01;1.60;;;;;;;0.86;82.06;99594.03;2325744;68;20352;-74
2021/01/26 08:21:53;;;;;;;3.54;1.26;;;;;;;0.83;81.88;99601.59;2323594;68;20179;-74
2021/01/26 08:25:08;;;;;;;6.20;1.46;;;;;;;0.82;81.97;99593.88;2324173;68;20421;-74
2021/01/26 08:28:40;;;;;;;2.56;1.27;;;;;;;0.79;81.95;99604.00;2323654;68;20958;-74
2021/01/26 08:31:41;;;;;;;1.94;1.18;;;;;;;0.81;82.04;99607.47;2322669;66;20772;-74
2021/01/26 08:35:05;;;;;;;3.14;2.25;;;;;;;0.80;81.92;99600.63;2324340;68;20170;-75
2021/01/26 08:38:10;;;;;;;5.59;1.69;;;;;;;0.79;81.93;99604.00;2323240;68;21136;-75
2021/01/26 08:41:30;;;;;;;4.16;1.70;;;;;;;0.84;81.92;99613.56;2323073;68;20139;-73
2021/01/26 08:44:35;;;;;;;3.47;1.79;;;;;;;0.90;81.90;99600.16;2322983;68;20195;-73
2021/01/26 08:48:02;;;;;;;3.19;1.43;;;;;;;0.90;81.49;99612.94;2323364;66;21196;-74
2021/01/26 08:51:10;;;;;;;4.26;1.76;;;;;;;0.97;81.49;99616.59;2322313;68;20220;-73
2021/01/26 08:54:44;;;;;;;3.40;1.60;;;;;;;1.06;81.56;99616.91;2322577;68;20680;-74
2021/01/26 08:57:46;;;;;;;6.40;1.98;;;;;;;1.12;81.22;99612.03;2322074;68;20169;-75
2021/01/26 09:00:49;;;;;;;4.39;1.89;;;;;;;1.18;81.19;99614.81;2321245;66;20297;-75
2021/01/26 09:03:53;;;;;;;3.71;1.89;;;;;;;1.22;81.06;99619.22;2321807;68;20954;-75
2021/01/26 09:06:55;;;;;;;3.36;2.01;;;;;;;1.26;80.79;99622.75;2322142;68;20312;-74
2021/01/26 09:09:57;;;;;;;3.66;1.60;;;;;;;1.29;80.60;99617.78;2321294;68;20309;-74
2021/01/26 09:13:06;;;;;;;4.74;2.00;;;;;;;1.35;80.32;99628.22;2321237;68;20294;-76
2021/01/26 09:16:28;;;;;;;4.19;1.76;;;;;;;1.38;80.31;99629.19;2321732;66;20303;-74
2021/01/26 09:19:37;;;;;;;5.56;2.33;;;;;;;1.44;80.39;99637.09;2323344;68;20225;-74
2021/01/26 09:22:39;;;;;;;3.97;1.89;;;;;;;1.44;80.12;99636.22;2321597;68;20240;-74
2021/01/26 09:25:43;;;;;;;4.76;1.90;;;;;;;1.47;80.10;99633.78;2321941;68;20342;-75
2021/01/26 09:28:48;;;;;;;6.57;1.91;;;;;;;1.48;79.85;99646.63;2322649;68;20776;-75
2021/01/26 09:31:50;;;;;;;5.18;1.90;;;;;;;1.48;80.02;99643.19;2321406;66;21453;-74
2021/01/26 09:34:52;;;;;;;3.74;1.73;;;;;;;1.56;80.12;99651.13;2322186;68;20877;-74
2021/01/26 09:38:13;;;;;;;5.14;1.66;;;;;;;1.62;80.08;99657.34;2321717;68;20302;-74
2021/01/26 09:41:29;;;;;;;3.34;1.79;;;;;;;1.65;80.12;99657.47;2322783;68;20350;-74
2021/01/26 09:44:31;;;;;;;2.03;1.61;;;;;;;1.70;79.94;99660.16;2319111;68;20328;-74
2021/01/26 09:47:34;;;;;;;2.58;1.80;;;;;;;1.74;79.95;99650.09;2319039;66;23704;-77
2021/01/26 09:50:36;;;;;;;4.10;1.91;;;;;;;1.76;79.84;99656.13;2320314;68;20384;-77
2021/01/26 09:53:40;;;;;;;2.69;1.88;;;;;;;1.74;79.51;99668.00;2319799;68;20316;-77
2021/01/26 09:56:42;;;;;;;3.25;1.63;;;;;;;1.79;79.60;99661.34;2320710;68;21045;-76
2021/01/26 09:59:45;;;;;;;2.92;1.99;;;;;;;1.85;79.58;99677.75;2321241;68;20299;-76
2021/01/26 10:02:52;;;;;;;4.59;2.06;;;;;;;1.88;79.66;99680.41;2320454;66;20494;-76
2021/01/26 10:05:59;;;;;;;2.66;1.60;;;;;;;1.89;79.34;99682.16;2320784;68;20332;-77
2021/01/26 10:09:20;;;;;;;6.91;1.94;;;;;;;1.88;79.03;99677.84;2320797;68;20676;-76
2021/01/26 10:12:36;;;;;;;5.20;1.75;;;;;;;1.86;78.89;99695.72;2320371;68;20884;-77
2021/01/26 10:15:40;;;;;;;6.75;3.09;;;;;;;1.93;79.05;99699.38;2319701;66;20361;-76
2021/01/26 10:18:42;;;;;;;5.54;1.81;;;;;;;1.97;78.54;99701.19;2320070;68;20302;-76
2021/01/26 10:21:43;;;;;;;4.19;1.90;;;;;;;1.99;78.89;99707.28;2320792;68;20535;-77
2021/01/26 10:24:46;;;;;;;2.65;1.74;;;;;;;2.04;78.71;99700.63;2320952;68;21290;-77
2021/01/26 10:27:48;;;;;;;5.25;2.09;;;;;;;2.14;78.69;99705.22;2321613;68;20267;-76
2021/01/26 10:30:51;;;;;;;3.42;1.74;;;;;;;2.22;78.52;99715.75;2320360;66;20279;-76
2021/01/26 10:33:53;;;;;;;2.85;1.81;;;;;;;2.33;78.32;99709.25;2321086;68;20353;-77
2021/01/26 10:37:06;;;;;;;2.90;2.01;;;;;;;2.44;78.33;99720.75;2320770;68;20271;-77
2021/01/26 10:40:17;;;;;;;2.04;1.86;;;;;;;2.51;77.63;99730.38;2321187;68;21291;-77
2021/01/26 10:43:24;;;;;;;3.05;2.01;;;;;;;2.57;77.57;99728.03;2320710;68;20320;-76
2021/01/26 10:46:31;;;;;;;5.30;1.95;;;;;;;2.54;76.57;99738.19;2321714;66;20752;-76
2021/01/26 10:49:35;;;;;;;3.30;1.94;;;;;;;2.52;76.50;99744.09;2322055;68;20335;-77
2021/01/26 10:52:41;;;;;;;3.16;2.11;;;;;;;2.51;76.56;99744.88;2321949;68;20307;-77
2021/01/26 10:55:42;;;;;;;2.70;2.16;;;;;;;2.50;76.33;99755.94;2322431;68;20311;-77
2021/01/26 10:58:45;;;;;;;3.33;2.05;;;;;;;2.50;76.46;99750.81;2322586;68;20359;-76
2021/01/26 11:01:48;;;;;;;3.17;1.84;;;;;;;2.56;76.80;99757.06;2321194;66;21228;-77
2021/01/26 11:04:50;;;;;;;6.22;2.25;;;;;;;2.54;76.31;99752.69;2322175;68;20546;-76
2021/01/26 11:07:52;;;;;;;3.76;2.16;;;;;;;2.62;76.47;99759.81;2324814;68;21095;-76
2021/01/26 11:10:53;;;;;;;5.36;2.30;;;;;;;2.63;75.80;99753.84;2322940;68;20306;-76
2021/01/26 11:13:57;;;;;;;5.63;2.41;;;;;;;2.65;76.33;99754.78;2323190;68;20275;-76
2021/01/26 11:16:59;;;;;;;2.53;2.08;;;;;;;2.65;76.05;99744.53;2323008;66;20397;-77
2021/01/26 11:20:01;;;;;;;3.81;1.96;;;;;;;2.62;75.06;99743.56;2323822;68;20397;-76
2021/01/26 11:23:03;;;;;;;2.83;1.99;;;;;;;2.59;75.10;99738.34;2322930;68;20287;-77
2021/01/26 11:26:05;;;;;;;3.19;2.19;;;;;;;2.59;75.34;99735.78;2323568;68;20348;-76
2021/01/26 11:29:07;;;;;;;3.16;1.86;;;;;;;2.67;75.71;99729.19;2328225;68;20287;-81
2021/01/26 11:32:09;;;;;;;2.45;2.25;;;;;;;2.71;75.34;99736.19;2324841;66;22156;-79
2021/01/26 11:35:14;;;;;;;3.24;2.21;;;;;;;2.65;74.00;99728.28;2322818;68;20920;-78
2021/01/26 11:38:16;;;;;;;4.31;1.91;;;;;;;2.73;75.11;99730.28;2324036;68;20351;-78
2021/01/26 11:41:18;;;;;;;3.55;1.94;;;;;;;2.81;75.14;99727.06;2324110;68;20299;-77
2021/01/26 11:44:20;;;;;;;1.74;1.50;;;;;;;2.83;74.63;99722.84;2324445;68;20754;-79
2021/01/26 11:47:21;;;;;;;4.70;2.50;;;;;;;2.91;75.07;99719.72;2323366;66;21461;-79
2021/01/26 11:50:24;;;;;;;3.55;2.11;;;;;;;2.99;74.41;99720.81;2323030;68;20290;-78
2021/01/26 11:53:26;;;;;;;3.35;1.75;;;;;;;3.04;74.41;99719.25;2324268;68;20279;-78
2021/01/26 11:56:28;;;;;;;5.00;2.05;;;;;;;3.13;74.24;99713.56;2323472;68;20316;-78
2021/01/26 11:59:31;;;;;;;2.06;1.46;;;;;;;3.21;74.04;99706.94;2323443;68;20396;-78
2021/01/26 12:02:33;;;;;;;2.39;1.46;;;;;;;3.32;74.01;99712.41;2323092;66;20287;-77
2021/01/26 12:05:37;;;;;;;2.45;1.75;;;;;;;3.39;73.13;99714.31;2324685;68;20332;-79
2021/01/26 12:08:39;;;;;;;2.50;1.67;;;;;;;3.39;72.68;99719.44;2323312;68;20279;-78
2021/01/26 12:11:42;;;;;;;2.83;1.56;;;;;;;3.40;72.05;99720.31;2329167;68;20307;-79
2021/01/26 12:14:44;;;;;;;3.56;1.79;;;;;;;3.47;72.59;99712.88;2323643;68;20330;-78
2021/01/26 12:17:46;;;;;;;3.20;1.74;;;;;;;3.55;72.54;99713.06;2323503;66;20887;-78
2021/01/26 12:20:48;;;;;;;2.86;1.60;;;;;;;3.52;71.59;99716.44;2323993;68;20326;-79
2021/01/26 12:23:50;;;;;;;3.69;1.54;;;;;;;3.57;71.93;99716.53;2323383;68;20290;-78
2021/01/26 12:26:54;;;;;;;3.47;1.59;;;;;;;3.59;71.69;99713.22;2325137;68;20413;-79
2021/01/26 12:29:56;;;;;;;2.04;1.49;;;;;;;3.72;71.93;99717.00;2325612;68;20317;-79
2021/01/26 12:32:58;;;;;;;3.30;1.29;;;;;;;3.79;71.53;99715.47;2327132;66;22908;-80
2021/01/26 12:36:00;;;;;;;2.51;1.66;;;;;;;3.85;71.49;99708.81;2324555;68;21282;-79
2021/01/26 12:39:04;;;;;;;2.51;1.23;;;;;;;3.86;70.40;99710.53;2324162;68;20288;-80
2021/01/26 12:42:05;;;;;;;3.65;1.38;;;;;;;3.84;71.18;99704.50;2325423;68;20286;-79
2021/01/26 12:45:09;;;;;;;2.40;1.51;;;;;;;3.74;70.25;99701.63;2324874;68;20833;-77
2021/01/26 12:48:11;;;;;;;2.25;1.30;;;;;;;3.72;70.30;99701.56;2323612;66;22029;-79
2021/01/26 12:51:16;;;;;;;1.48;1.16;;;;;;;3.76;70.96;99712.81;2326107;68;20307;-80
2021/01/26 12:54:19;;;;;;;2.28;1.40;;;;;;;3.74;70.46;99705.06;2328034;68;20336;-80
2021/01/26 12:57:21;;;;;;;2.84;1.23;;;;;;;3.75;70.06;99703.34;2327240;68;20520;-79
2021/01/26 13:00:24;;;;;;;3.66;1.26;;;;;;;3.80;70.61;99702.69;2327643;66;21433;-79
2021/01/26 13:03:26;;;;;;;3.10;1.19;;;;;;;3.84;70.87;99706.19;2324225;68;20340;-79
2021/01/26 13:06:28;;;;;;;1.54;1.20;;;;;;;3.88;70.87;99714.03;2324471;68;20824;-78
2021/01/26 13:09:31;;;;;;;2.10;1.40;;;;;;;3.91;70.67;99716.66;2325431;68;20478;-82
2021/01/26 13:12:34;;;;;;;2.41;1.40;;;;;;;3.90;70.34;99712.34;2326126;68;20311;-78
2021/01/26 13:15:36;;;;;;;5.91;1.31;;;;;;;3.94;70.43;99716.75;2322482;66;25099;-78
2021/01/26 13:18:37;;;;;;;1.96;1.41;;;;;;;3.98;70.39;99715.16;2323997;68;20855;-79
2021/01/26 13:21:39;;;;;;;2.89;1.30;;;;;;;4.04;70.24;99712.75;2323843;68;20473;-78
2021/01/26 13:24:43;;;;;;;1.63;1.16;;;;;;;4.06;70.15;99715.34;2324647;68;20333;-79
2021/01/26 13:27:45;;;;;;;2.33;1.05;;;;;;;4.09;70.39;99713.72;2323576;68;20330;-78
2021/01/26 13:30:48;;;;;;;1.95;0.99;;;;;;;4.07;69.75;99717.09;2322555;66;20784;-78
2021/01/26 13:33:50;;;;;;;1.52;1.10;;;;;;;4.01;69.75;99717.78;2323531;68;20314;-79
2021/01/26 13:36:52;;;;;;;4.16;1.10;;;;;;;3.96;69.99;99710.81;2324449;68;20321;-78
2021/01/26 13:39:53;;;;;;;3.74;1.30;;;;;;;3.93;70.65;99715.00;2324591;68;20318;-78
2021/01/26 13:42:56;;;;;;;2.36;1.25;;;;;;;3.90;70.55;99717.50;2323474;68;20319;-79
2021/01/26 13:45:58;;;;;;;1.59;1.00;;;;;;;3.81;70.13;99721.53;2323675;66;21748;-77
2021/01/26 13:48:59;;;;;;;1.31;1.08;;;;;;;3.84;70.80;99721.59;2323112;68;20282;-77
2021/01/26 13:52:01;;;;;;;1.24;0.91;;;;;;;3.89;71.04;99720.03;2323239;68;20412;-78
2021/01/26 13:55:05;;;;;;;1.81;0.96;;;;;;;3.88;71.03;99729.44;2322595;68;20350;-77
2021/01/26 13:58:07;;;;;;;2.11;0.96;;;;;;;3.92;71.39;99727.81;2323386;68;20672;-77
2021/01/26 14:01:09;;;;;;;2.80;1.01;;;;;;;3.96;71.60;99721.94;2322251;66;25591;-78
2021/01/26 14:04:11;;;;;;;1.17;0.84;;;;;;;3.98;71.50;99714.28;2322004;68;20308;-77
2021/01/26 14:07:13;;;;;;;3.59;1.01;;;;;;;3.99;71.76;99719.47;2322893;68;20308;-77
2021/01/26 14:10:15;;;;;;;2.40;0.84;;;;;;;3.98;71.47;99722.00;2323358;68;20283;-77
2021/01/26 14:13:16;;;;;;;2.16;0.90;;;;;;;4.01;71.76;99720.38;2322066;68;20290;-77
2021/01/26 14:16:18;;;;;;;4.26;1.20;;;;;;;4.00;72.02;99721.19;2323634;66;21591;-79
2021/01/26 14:19:20;;;;;;;1.94;0.85;;;;;;;4.01;72.39;99725.50;2323092;68;20347;-78
2021/01/26 14:22:25;;;;;;;2.38;0.80;;;;;;;3.96;72.28;99727.09;2323104;68;20660;-78
2021/01/26 14:25:27;;;;;;;1.85;1.09;;;;;;;3.94;72.50;99721.88;2322154;68;20303;-78
2021/01/26 14:28:29;;;;;;;2.20;1.10;;;;;;;3.89;72.56;99723.47;2323493;68;20752;-80
2021/01/26 14:31:32;;;;;;;2.79;1.59;;;;;;;3.96;72.96;99726.22;2322397;66;24984;-78
2021/01/26 14:34:34;;;;;;;2.33;0.93;;;;;;;4.02;72.98;99718.66;2322398;68;20324;-78
2021/01/26 14:37:55;;;;;;;1.80;0.82;;;;;;;4.09;72.18;99726.56;2323813;68;20332;-78
2021/01/26 14:40:57;;;;;;;1.65;1.10;;;;;;;4.07;71.93;99733.38;2322387;68;20307;-78
2021/01/26 14:43:59;;;;;;;2.85;0.79;;;;;;;4.12;72.30;99749.78;2323548;68;20275;-79
2021/01/26 14:47:00;;;;;;;1.38;0.79;;;;;;;4.12;72.26;99752.34;2321843;66;22631;-78
2021/01/26 14:50:05;;;;;;;1.73;0.90;;;;;;;4.13;72.48;99754.09;2324265;68;20400;-79
2021/01/26 14:53:09;;;;;;;1.76;0.90;;;;;;;4.09;71.61;99757.41;2322925;68;20324;-78